Time;durP1;ratioP1;P1;durP2;ratioP2;P2;SDS_P1;SDS_P2;PMS_P1;PMS_P2;Temp;Humidity;BMP_temperature;BMP_pressure;BME280_temperature;BME280_humidity;BME280_pressure;Samples;Min_cycle;Max_cycle;Signal;HPM_P1;HPM_P2
2024/02/12 00:01:36;;;;;;;16.67;10.07;;;;;;;-9.01;100.00;101263.44;5053510;28;20048;-71
2024/02/12 00:04:10;;;;;;;18.70;10.93;;;;;;;-9.03;100.00;101252.28;5054548;28;20061;-69
2024/02/12 00:06:37;;;;;;;22.23;11.48;;;;;;;-8.89;100.00;101283.91;5059195;28;20055;-69
2024/02/12 00:09:03;;;;;;;16.98;10.77;;;;;;;-8.80;100.00;101296.63;5054987;28;20123;-69
2024/02/12 00:11:29;;;;;;;14.80;10.05;;;;;;;-8.85;100.00;101288.97;5053937;28;20087;-71
2024/02/12 00:13:56;;;;;;;18.98;11.15;;;;;;;-8.78;100.00;101297.44;5052507;28;20212;-70
2024/02/12 00:16:26;;;;;;;20.83;12.30;;;;;;;-8.83;100.00;101284.63;5053736;28;20039;-71
2024/02/12 00:18:54;;;;;;;19.67;10.90;;;;;;;-9.03;100.00;101252.28;5052297;28;20033;-72
2024/02/12 00:21:22;;;;;;;19.27;11.70;;;;;;;-9.08;100.00;101236.91;5053106;28;20134;-73
2024/02/12 00:23:49;;;;;;;19.58;11.90;;;;;;;-8.79;100.00;101282.84;5052886;28;20049;-69
2024/02/12 00:26:15;;;;;;;19.27;12.27;;;;;;;-9.00;100.00;101237.59;5035419;28;20043;-69
2024/02/12 00:28:42;;;;;;;17.90;10.50;;;;;;;-8.98;100.00;101248.75;5035669;28;20055;-67
2024/02/12 00:31:12;;;;;;;14.35;9.80;;;;;;;-8.70;100.00;101282.66;5053737;28;20412;-71
2024/02/12 00:33:38;;;;;;;19.77;13.00;;;;;;;-8.88;100.00;101257.19;5056956;28;20412;-69
2024/02/12 00:36:04;;;;;;;23.93;13.30;;;;;;;-8.80;100.00;101273.38;5057826;28;20029;-67
2024/02/12 00:38:30;;;;;;;17.80;11.90;;;;;;;-8.83;100.00;101268.28;5052162;28;20517;-70
2024/02/12 00:40:56;;;;;;;16.85;10.15;;;;;;;-9.24;100.00;101202.81;5053013;28;20967;-68
2024/02/12 00:43:22;;;;;;;16.05;12.05;;;;;;;-8.70;100.00;101280.06;5051657;28;20033;-71
2024/02/12 00:45:47;;;;;;;19.03;10.17;;;;;;;-8.75;100.00;101259.50;5051878;28;20048;-73
2024/02/12 00:48:13;;;;;;;19.93;12.87;;;;;;;-8.96;100.00;101243.56;5051444;28;20060;-68
2024/02/12 00:50:38;;;;;;;20.87;12.90;;;;;;;-8.96;100.00;101243.56;5052506;28;20055;-73
2024/02/12 00:53:04;;;;;;;18.47;12.43;;;;;;;-9.09;100.00;101228.31;5052793;28;20473;-71
2024/02/12 00:55:30;;;;;;;19.83;12.55;;;;;;;-9.01;100.00;101250.53;5051952;28;20087;-70
2024/02/12 00:58:09;;;;;;;19.63;12.13;;;;;;;-8.69;100.00;101284.34;5053405;28;20035;-70
2024/02/12 01:00:35;;;;;;;19.48;12.43;;;;;;;-8.70;100.00;101282.66;5057214;28;20550;-69
2024/02/12 01:03:22;;;;;;;20.67;13.07;;;;;;;-8.76;100.00;101267.28;5055131;28;20496;-72
2024/02/12 01:05:48;;;;;;;21.17;14.30;;;;;;;-8.82;100.00;101268.25;5037557;28;20029;-69
2024/02/12 01:08:14;;;;;;;22.98;11.65;;;;;;;-8.92;100.00;101266.72;5054801;28;20048;-71
2024/02/12 01:10:40;;;;;;;18.88;12.10;;;;;;;-8.90;100.00;101274.44;5053763;28;20086;-68
2024/02/12 01:13:05;;;;;;;22.63;13.73;;;;;;;-8.75;100.00;101302.56;5052331;28;20119;-70
2024/02/12 01:15:31;;;;;;;22.33;12.60;;;;;;;-8.93;100.00;101259.03;5052088;28;20079;-69
2024/02/12 01:18:17;;;;;;;22.95;12.00;;;;;;;-9.00;100.00;101237.59;5052276;28;20544;-68
2024/02/12 01:20:47;;;;;;;;;;;;;;;-8.65;100.00;101298.94;5053869;28;20055;-70
2024/02/12 01:23:15;;;;;;;17.83;12.40;;;;;;;-8.64;100.00;101300.66;5052285;28;19927;-70
2024/02/12 01:25:42;;;;;;;21.98;14.20;;;;;;;-9.10;100.00;101231.78;5052011;28;20028;-70
2024/02/12 01:28:09;;;;;;;21.58;14.77;;;;;;;-8.68;100.00;101304.13;5051882;28;20075;-72
2024/02/12 01:30:35;;;;;;;19.30;12.67;;;;;;;-8.72;100.00;101291.31;5051737;28;20061;-72
2024/02/12 01:33:02;;;;;;;23.88;14.20;;;;;;;-8.70;100.00;101303.31;5052035;28;20090;-68
2024/02/12 01:35:29;;;;;;;24.75;13.90;;;;;;;-8.76;100.00;101298.25;5051609;28;20036;-69
2024/02/12 01:37:54;;;;;;;21.23;13.63;;;;;;;-8.63;100.00;101320.41;5050006;28;20037;-71
2024/02/12 01:40:20;;;;;;;24.07;13.87;;;;;;;-8.69;100.00;101307.59;5051686;28;20044;-69
2024/02/12 01:42:50;;;;;;;21.97;12.60;;;;;;;-8.72;100.00;101297.31;5050308;28;20124;-69
2024/02/12 01:45:23;;;;;;;18.58;13.15;;;;;;;-8.82;100.00;101277.72;5051915;28;20060;-70
2024/02/12 01:47:57;;;;;;;22.35;12.52;;;;;;;-8.77;100.00;101291.41;5052724;28;20047;-71
2024/02/12 01:50:26;;;;;;;18.40;12.23;;;;;;;-9.26;100.00;101216.56;5054974;28;20075;-69
2024/02/12 01:52:52;;;;;;;23.55;12.77;;;;;;;-8.99;100.00;101270.28;5055149;28;20132;-69
2024/02/12 01:55:28;;;;;;;21.33;13.77;;;;;;;-8.93;100.00;101290.84;5057591;28;20072;-67
2024/02/12 01:57:54;;;;;;;29.80;13.18;;;;;;;-9.06;100.00;101259.22;5058978;28;20088;-68
2024/02/12 02:00:25;;;;;;;24.23;12.90;;;;;;;-8.80;100.00;101306.94;5058701;28;20053;-70
2024/02/12 02:02:51;;;;;;;23.98;15.82;;;;;;;-8.74;100.00;101304.25;5059189;28;20117;-69
2024/02/12 02:05:17;;;;;;;23.25;14.15;;;;;;;-8.83;100.00;101283.78;5057855;28;20037;-71
2024/02/12 02:07:47;;;;;;;22.08;14.75;;;;;;;-8.72;100.00;101304.22;5058316;28;20036;-69
2024/02/12 02:10:14;;;;;;;21.88;13.43;;;;;;;-8.81;100.00;101289.75;5055694;28;20052;-71
2024/02/12 02:12:42;;;;;;;22.45;14.48;;;;;;;-8.82;100.00;101286.31;5055387;28;20033;-69
2024/02/12 02:15:27;;;;;;;23.60;15.00;;;;;;;-9.11;100.00;101235.22;5056775;28;20567;-68
2024/02/12 02:17:53;;;;;;;22.73;14.60;;;;;;;-8.75;100.00;101264.69;5058830;28;20041;-69
2024/02/12 02:20:26;;;;;;;20.63;14.17;;;;;;;-8.66;100.00;101279.16;5040060;28;20318;-71
2024/02/12 02:22:54;;;;;;;18.42;13.73;;;;;;;-8.60;100.00;101286.78;5061775;28;20040;-67
2024/02/12 02:25:20;;;;;;;26.33;13.55;;;;;;;-8.51;100.00;101298.66;5059111;28;20106;-69
2024/02/12 02:27:47;;;;;;;24.75;13.13;;;;;;;-8.79;100.00;101251.84;5054685;28;20115;-71
2024/02/12 02:30:13;;;;;;;28.47;16.20;;;;;;;-9.13;100.00;101198.28;5054883;28;20043;-72
2024/02/12 02:32:42;;;;;;;25.33;13.73;;;;;;;-8.53;100.00;101321.94;5054509;28;20040;-69
2024/02/12 02:35:08;;;;;;;23.85;14.27;;;;;;;-8.57;100.00;101289.31;5059749;28;20511;-72
2024/02/12 02:37:36;;;;;;;21.17;15.18;;;;;;;-8.54;100.00;101299.59;5061536;28;20063;-66
2024/02/12 02:40:03;;;;;;;22.63;15.52;;;;;;;-8.58;100.00;101297.94;5059919;28;20044;-70
2024/02/12 02:42:31;;;;;;;22.35;13.40;;;;;;;-8.58;100.00;101297.09;5054435;28;20579;-68
2024/02/12 02:44:57;;;;;;;25.27;13.83;;;;;;;-8.60;100.00;101288.53;5058515;28;20090;-68
2024/02/12 02:47:22;;;;;;;22.50;14.50;;;;;;;-8.55;100.00;101299.63;5061778;28;20033;-72
2024/02/12 02:49:48;;;;;;;25.17;14.93;;;;;;;-8.43;100.00;101312.28;5068833;28;20033;-70
2024/02/12 02:52:14;;;;;;;22.90;14.67;;;;;;;-8.60;100.00;101281.63;5066672;28;20045;-72
2024/02/12 02:54:44;;;;;;;19.63;13.60;;;;;;;-8.56;100.00;101296.19;5062391;28;20497;-70
2024/02/12 02:57:11;;;;;;;23.30;13.35;;;;;;;-8.66;100.00;101271.41;5062152;28;20043;-74
2024/02/12 02:59:38;;;;;;;22.08;13.48;;;;;;;-8.57;100.00;101296.22;5061760;28;20028;-71
2024/02/12 03:02:06;;;;;;;28.98;13.85;;;;;;;-8.62;100.00;101301.47;5057262;28;20412;-70
2024/02/12 03:04:34;;;;;;;18.90;12.73;;;;;;;-8.71;100.00;101275.78;5056548;28;20029;-69
2024/02/12 03:06:59;;;;;;;16.20;11.80;;;;;;;-8.60;100.00;101310.03;5054718;28;20043;-68
2024/02/12 03:09:25;;;;;;;28.77;14.87;;;;;;;-8.60;100.00;101304.03;5054584;28;20037;-72
2024/02/12 03:11:54;;;;;;;23.40;14.67;;;;;;;-8.56;100.00;101291.00;5054500;28;20037;-73
2024/02/12 03:14:21;;;;;;;31.75;16.65;;;;;;;-8.60;100.00;101286.78;5054244;28;20033;-72
2024/02/12 03:16:56;;;;;;;28.70;14.48;;;;;;;-8.70;100.00;101277.50;5055007;28;20037;-69
2024/02/12 03:19:22;;;;;;;23.60;14.20;;;;;;;-8.52;100.00;101299.56;5054337;28;20109;-74
2024/02/12 03:21:51;;;;;;;23.50;13.70;;;;;;;-8.70;100.00;101268.91;5054400;28;20044;-70
2024/02/12 03:24:19;;;;;;;23.20;13.45;;;;;;;-8.70;100.00;101271.47;5054229;28;20703;-70
2024/02/12 03:26:46;;;;;;;25.92;14.90;;;;;;;-8.53;100.00;101296.13;5052811;28;20075;-71
2024/02/12 03:29:12;;;;;;;24.75;13.93;;;;;;;-8.64;100.00;101277.41;5054306;28;20058;-74
2024/02/12 03:31:41;;;;;;;20.70;12.90;;;;;;;-8.58;100.00;101300.53;5053459;28;20028;-71
2024/02/12 03:34:07;;;;;;;21.40;12.67;;;;;;;-8.79;100.00;101259.59;5053054;28;20275;-68
2024/02/12 03:36:34;;;;;;;25.67;13.73;;;;;;;-8.58;100.00;101303.09;5054533;28;20086;-68
2024/02/12 03:38:59;;;;;;;21.80;15.33;;;;;;;-8.63;100.00;101299.75;5056400;28;20037;-71
2024/02/12 03:41:25;;;;;;;25.83;16.77;;;;;;;-8.61;100.00;101304.91;5055809;28;20095;-69
2024/02/12 03:43:55;;;;;;;20.20;13.10;;;;;;;-8.73;100.00;101276.72;5053970;28;20037;-72
2024/02/12 03:46:21;;;;;;;21.70;13.95;;;;;;;-8.67;100.00;101277.47;5054614;28;20279;-73
2024/02/12 03:59:51;;;;;;;22.33;13.70;;;;;;;-8.79;100.00;101272.50;5052677;28;20040;-70
2024/02/12 04:02:16;;;;;;;22.45;11.88;;;;;;;-9.07;100.00;101221.41;5053770;28;20117;-73
2024/02/12 04:04:42;;;;;;;23.47;15.03;;;;;;;-8.75;100.00;101263.81;5053126;28;20751;-71
2024/02/12 04:07:08;;;;;;;19.90;12.70;;;;;;;-8.64;100.00;101284.31;5053527;28;20041;-68
2024/02/12 04:09:38;;;;;;;17.97;12.23;;;;;;;-8.47;100.00;101306.31;5053336;28;20048;-72
2024/02/12 04:12:11;;;;;;;18.67;12.77;;;;;;;-8.44;100.00;101295.94;5053210;28;20032;-68
2024/02/12 04:14:42;;;;;;;21.35;12.73;;;;;;;-8.61;100.00;101266.16;5053194;28;20459;-74
2024/02/12 04:17:14;;;;;;;19.50;12.68;;;;;;;-8.48;100.00;101302.03;5053060;28;20455;-71
2024/02/12 04:19:45;;;;;;;18.15;13.68;;;;;;;-8.87;100.00;101264.91;5051958;28;20053;-73
2024/02/12 04:22:14;;;;;;;20.00;13.35;;;;;;;-8.64;100.00;101298.06;5053539;28;20047;-70
2024/02/12 04:24:43;;;;;;;22.23;11.18;;;;;;;-8.76;100.00;101267.28;5052709;28;20124;-73
2024/02/12 04:27:10;;;;;;;;;;;;;;;-8.54;100.00;101309.06;5051703;28;20033;-74
2024/02/12 04:29:37;;;;;;;17.15;10.77;;;;;;;-8.54;100.00;101301.31;5052452;28;20384;-69
2024/02/12 04:32:11;;;;;;;18.30;12.23;;;;;;;-8.77;100.00;101265.59;5052420;28;20037;-72
2024/02/12 04:34:41;;;;;;;15.65;9.52;;;;;;;-8.53;100.00;101310.75;5050083;28;20068;-71
2024/02/12 04:37:08;;;;;;;19.10;12.35;;;;;;;-8.96;100.00;101238.41;5052736;28;20052;-71
2024/02/12 04:39:35;;;;;;;19.17;13.02;;;;;;;-8.58;100.00;101318.59;5052469;28;20045;-72
2024/02/12 04:42:01;;;;;;;18.02;10.40;;;;;;;-8.69;100.00;101296.41;5051952;28;20049;-70
2024/02/12 04:44:27;;;;;;;16.23;11.32;;;;;;;-8.63;100.00;101312.69;5052325;28;20077;-73
2024/02/12 04:46:53;;;;;;;21.97;11.27;;;;;;;-8.70;100.00;101311.06;5052122;28;20044;-71
2024/02/12 04:49:21;;;;;;;19.03;11.13;;;;;;;-8.86;100.00;101301.91;5050345;28;20519;-71
2024/02/12 04:51:48;;;;;;;19.63;11.55;;;;;;;-8.94;100.00;101289.13;5052103;28;20044;-71
2024/02/12 04:54:14;;;;;;;16.83;10.55;;;;;;;-8.82;100.00;101303.53;5052403;28;20404;-71
2024/02/12 04:56:43;;;;;;;18.42;12.18;;;;;;;-8.97;100.00;101278.00;5051016;28;20463;-73
2024/02/12 04:59:14;;;;;;;15.00;10.48;;;;;;;-8.96;100.00;101285.72;5052343;28;20029;-70
2024/02/12 05:01:40;;;;;;;20.98;12.77;;;;;;;-9.00;100.00;101278.91;5033993;28;20033;-74
2024/02/12 05:04:06;;;;;;;15.02;10.52;;;;;;;-8.91;100.00;101293.41;5051598;28;20094;-69
2024/02/12 05:06:33;;;;;;;18.83;11.60;;;;;;;-8.88;100.00;101301.94;5052049;28;20036;-70
2024/02/12 05:08:59;;;;;;;16.10;11.43;;;;;;;-8.86;100.00;101296.75;5052177;28;20434;-68
2024/02/12 05:11:26;;;;;;;17.73;11.93;;;;;;;-8.79;100.00;101300.91;5051537;28;20037;-67
2024/02/12 05:13:56;;;;;;;16.77;12.32;;;;;;;-8.81;100.00;101300.94;5050173;28;20029;-68
2024/02/12 05:16:29;;;;;;;18.70;11.98;;;;;;;-8.98;100.00;101266.81;5049094;28;20492;-69
2024/02/12 05:24:30;;;;;;;19.52;11.57;;;;;;;-8.96;100.00;101300.34;5050630;28;20048;-70
2024/02/12 05:26:57;;;;;;;17.13;11.50;;;;;;;-8.86;100.00;101313.06;5051771;28;20075;-70
2024/02/12 05:29:26;;;;;;;20.10;12.68;;;;;;;-8.91;100.00;101327.78;5051302;28;20029;-71
2024/02/12 05:31:53;;;;;;;17.27;12.32;;;;;;;-8.97;100.00;101319.28;5051148;28;20396;-71
2024/02/12 05:34:20;;;;;;;18.08;12.38;;;;;;;-9.19;100.00;101288.69;5051961;28;20123;-73
2024/02/12 05:36:51;;;;;;;19.27;11.10;;;;;;;-9.13;100.00;101292.91;5050954;28;20047;-72
2024/02/12 05:39:16;;;;;;;20.45;14.00;;;;;;;-9.06;100.00;101321.16;5051647;28;20119;-72
2024/02/12 05:41:42;;;;;;;19.93;12.43;;;;;;;-9.65;100.00;101220.69;5051157;28;20032;-71
2024/02/12 05:44:08;;;;;;;20.33;12.67;;;;;;;-9.06;100.00;101315.13;5051514;28;20037;-71
2024/02/12 05:46:34;;;;;;;20.20;14.60;;;;;;;-9.31;100.00;101294.03;5051709;28;20033;-70
2024/02/12 05:49:00;;;;;;;22.17;12.95;;;;;;;-9.18;100.00;101308.47;5034231;28;20025;-72
2024/02/12 05:51:26;;;;;;;20.80;13.10;;;;;;;-9.27;100.00;101287.09;5051661;28;20032;-70
2024/02/12 05:53:53;;;;;;;29.83;17.27;;;;;;;-9.30;100.00;101263.94;5051590;28;20067;-70
2024/02/12 05:56:21;;;;;;;22.85;12.95;;;;;;;-8.83;100.00;101345.72;5051024;28;20029;-71
2024/02/12 05:58:47;;;;;;;20.67;12.18;;;;;;;-8.95;100.00;101308.09;5051406;28;20037;-70
2024/02/12 06:01:12;;;;;;;20.80;12.63;;;;;;;-8.92;100.00;101318.34;5050881;28;20037;-71
2024/02/12 06:03:38;;;;;;;20.17;12.93;;;;;;;-8.91;100.00;101314.03;5050965;28;20037;-70
2024/02/12 06:06:04;;;;;;;18.53;11.37;;;;;;;-8.87;100.00;101320.84;5049590;28;20530;-70
2024/02/12 06:08:30;;;;;;;20.65;11.98;;;;;;;-8.92;100.00;101312.34;5050925;28;20435;-69
2024/02/12 06:10:56;;;;;;;19.67;12.03;;;;;;;-8.81;100.00;101357.72;5049589;28;20040;-73
2024/02/12 06:13:22;;;;;;;17.50;12.60;;;;;;;-8.79;100.00;101365.44;5051938;28;20052;-72
2024/02/12 06:15:47;;;;;;;17.80;11.70;;;;;;;-8.87;100.00;101344.06;5049629;28;20128;-69
2024/02/12 06:18:13;;;;;;;19.27;11.37;;;;;;;-8.76;100.00;101365.38;5051285;28;20378;-67
2024/02/12 06:20:40;;;;;;;17.67;11.27;;;;;;;-8.76;100.00;101349.91;5051168;28;20048;-69
2024/02/12 06:23:06;;;;;;;16.13;11.90;;;;;;;-8.99;100.00;101321.88;5052183;28;20041;-69
2024/02/12 06:25:32;;;;;;;19.83;12.87;;;;;;;-9.25;100.00;101277.59;5054010;28;20097;-71
2024/02/12 06:28:00;;;;;;;15.03;11.30;;;;;;;-8.90;100.00;101359.63;5033412;28;20029;-72
2024/02/12 06:30:26;;;;;;;19.05;10.27;;;;;;;-8.97;100.00;101335.63;5034454;28;20045;-71
2024/02/12 06:33:04;;;;;;;20.57;13.37;;;;;;;-9.03;100.00;101320.25;5035232;28;20095;-74
2024/02/12 06:35:31;;;;;;;19.27;10.98;;;;;;;-9.06;100.00;101310.81;5034616;28;20602;-70
2024/02/12 06:38:05;;;;;;;17.63;11.63;;;;;;;-8.82;100.00;101343.13;5035039;28;20033;-68
2024/02/12 06:40:32;;;;;;;13.77;10.48;;;;;;;-8.82;100.00;101330.22;5034707;28;20029;-70
2024/02/12 06:43:04;;;;;;;18.87;12.37;;;;;;;-8.75;100.00;101351.59;5034775;28;20056;-71
2024/02/12 06:45:32;;;;;;;18.65;12.73;;;;;;;-8.84;100.00;101346.59;5035257;28;20041;-70
2024/02/12 06:47:58;;;;;;;24.70;11.93;;;;;;;-8.99;100.00;101305.56;5034833;28;20042;-72
2024/02/12 06:50:24;;;;;;;17.63;11.75;;;;;;;-8.86;100.00;101313.06;5041038;28;20052;-72
2024/02/12 06:53:09;;;;;;;20.05;13.70;;;;;;;-8.70;100.00;101344.63;5043342;28;20048;-72
2024/02/12 06:55:35;;;;;;;22.13;14.03;;;;;;;-8.95;100.00;101315.81;5045561;28;20039;-71
2024/02/12 06:58:01;;;;;;;26.00;14.95;;;;;;;-8.76;100.00;101334.41;5039890;28;20094;-73
2024/02/12 07:00:28;;;;;;;20.27;11.95;;;;;;;-8.91;100.00;101314.03;5048747;28;20523;-71
2024/02/12 07:02:55;;;;;;;18.98;12.50;;;;;;;-8.87;100.00;101331.19;5035507;28;20451;-73
2024/02/12 07:05:22;;;;;;;19.92;15.75;;;;;;;-8.85;100.00;101334.56;5051638;28;20516;-71
2024/02/12 07:07:48;;;;;;;20.83;13.55;;;;;;;-8.72;100.00;101361.88;5048170;28;20179;-71
2024/02/12 07:10:13;;;;;;;18.57;12.03;;;;;;;-8.67;100.00;101367.84;5041713;28;20495;-71
2024/02/12 07:12:40;;;;;;;18.53;12.17;;;;;;;-9.01;100.00;101297.00;5038381;28;20037;-73
2024/02/12 07:15:09;;;;;;;22.17;14.88;;;;;;;-8.71;100.00;101337.75;5043614;28;20130;-71
2024/02/12 07:17:36;;;;;;;23.45;15.80;;;;;;;-8.74;100.00;101337.81;5046153;28;20041;-72
2024/02/12 07:20:09;;;;;;;18.50;12.60;;;;;;;-8.59;100.00;101368.53;5051283;28;20076;-72
2024/02/12 07:22:37;;;;;;;20.92;14.15;;;;;;;-8.62;100.00;101381.50;5037718;28;20056;-70
2024/02/12 07:25:04;;;;;;;21.13;13.50;;;;;;;-8.60;100.00;101377.19;5042688;28;20041;-71
2024/02/12 07:27:33;;;;;;;21.83;12.90;;;;;;;-8.60;100.00;101374.59;5051942;28;20049;-68
2024/02/12 07:29:59;;;;;;;26.23;14.87;;;;;;;-8.53;100.00;101371.00;5036256;28;20044;-70
2024/02/12 07:32:25;;;;;;;18.37;12.43;;;;;;;-8.62;100.00;101347.94;5039103;28;20033;-71
2024/02/12 07:34:52;;;;;;;20.37;11.73;;;;;;;-8.76;100.00;101319.78;5020965;28;20230;-72
2024/02/12 07:37:18;;;;;;;29.60;14.07;;;;;;;-8.46;100.00;101367.44;5062716;28;20029;-71
2024/02/12 07:39:56;;;;;;;21.75;13.75;;;;;;;-8.57;100.00;101355.59;5052590;28;20041;-70
2024/02/12 07:42:22;;;;;;;19.57;12.20;;;;;;;-8.45;100.00;101361.38;5041633;28;20485;-69
2024/02/12 07:44:48;;;;;;;22.00;13.43;;;;;;;-8.36;100.00;101365.56;5042177;28;20041;-71
2024/02/12 07:47:14;;;;;;;20.58;12.02;;;;;;;-8.49;100.00;101357.16;5042536;28;20033;-71
2024/02/12 07:49:40;;;;;;;30.60;14.30;;;;;;;-8.39;100.00;101373.34;5048169;28;20411;-71
2024/02/12 07:52:07;;;;;;;23.50;13.40;;;;;;;-8.58;100.00;101357.34;5041865;28;20091;-69
2024/02/12 07:54:34;;;;;;;20.27;12.38;;;;;;;-8.44;100.00;101357.94;5049550;28;20098;-69
2024/02/12 07:57:00;;;;;;;21.33;13.02;;;;;;;-8.46;100.00;101359.69;5049388;28;20051;-69
2024/02/12 07:59:25;;;;;;;22.10;11.47;;;;;;;-8.39;100.00;101372.47;5045212;28;20041;-71
2024/02/12 08:01:54;;;;;;;18.20;11.43;;;;;;;-8.39;100.00;101372.47;5049263;28;20057;-70
2024/02/12 08:04:20;;;;;;;15.40;12.20;;;;;;;-8.49;100.00;101380.41;5046155;28;20045;-70
2024/02/12 08:06:46;;;;;;;22.97;12.17;;;;;;;-8.85;100.00;101316.50;5052588;28;20045;-70
2024/02/12 08:09:11;;;;;;;23.35;13.40;;;;;;;-8.63;100.00;101346.25;5046555;28;20048;-70
2024/02/12 08:11:39;;;;;;;18.73;11.97;;;;;;;-8.41;100.00;101379.41;5050913;28;20033;-70
2024/02/12 08:14:09;;;;;;;18.67;12.23;;;;;;;-8.56;100.00;101359.88;5046833;28;20047;-70
2024/02/12 08:16:35;;;;;;;20.58;10.15;;;;;;;-8.48;100.00;101397.59;5049674;28;20064;-71
2024/02/12 08:19:01;;;;;;;21.63;11.73;;;;;;;-8.62;100.00;101385.81;5044806;28;20045;-70
2024/02/12 08:21:29;;;;;;;21.02;11.82;;;;;;;-8.53;100.00;101407.16;5050639;28;20053;-71
2024/02/12 08:23:54;;;;;;;19.00;10.75;;;;;;;-8.70;100.00;101374.75;5045692;28;20052;-69
2024/02/12 08:26:21;;;;;;;17.67;12.80;;;;;;;-8.78;100.00;101380.06;5046171;28;20041;-71
2024/02/12 08:28:47;;;;;;;20.10;11.73;;;;;;;-8.66;100.00;101403.09;5048356;28;20033;-70
2024/02/12 08:31:17;;;;;;;21.33;12.73;;;;;;;-8.53;100.00;101422.66;5047553;28;20044;-70
2024/02/12 08:33:43;;;;;;;16.33;13.23;;;;;;;-8.43;100.00;101420.75;5049477;28;20080;-70
2024/02/12 08:36:09;;;;;;;17.17;11.13;;;;;;;-8.52;100.00;101390.78;5042651;28;20029;-68
2024/02/12 08:38:34;;;;;;;22.27;13.33;;;;;;;-8.47;99.85;101404.47;5047166;28;20475;-69
2024/02/12 08:41:00;;;;;;;22.00;13.03;;;;;;;-8.39;100.00;101417.25;5046707;28;20588;-71
2024/02/12 08:43:26;;;;;;;23.13;12.30;;;;;;;-8.33;99.27;101418.91;5046147;28;20041;-69
2024/02/12 08:45:52;;;;;;;20.10;11.30;;;;;;;-8.24;99.09;101444.53;5048700;28;20507;-71
2024/02/12 08:48:29;;;;;;;21.20;13.13;;;;;;;-8.40;99.29;101414.69;5049173;28;20045;-71
2024/02/12 08:50:55;;;;;;;24.35;13.50;;;;;;;-8.27;98.45;101429.09;5048012;28;20040;-72
2024/02/12 08:53:21;;;;;;;23.17;12.83;;;;;;;-8.19;98.78;101427.22;5046164;28;20052;-70
2024/02/12 08:55:46;;;;;;;24.03;14.17;;;;;;;-8.23;99.23;101425.56;5048197;28;20045;-68
2024/02/12 08:58:12;;;;;;;22.97;16.43;;;;;;;-8.17;98.99;101438.38;5048996;28;20467;-70
2024/02/12 09:00:38;;;;;;;25.10;13.60;;;;;;;-8.27;99.40;101434.25;5048013;28;20042;-70
2024/02/12 09:03:24;;;;;;;27.48;15.00;;;;;;;-8.30;99.41;101447.22;5042812;28;20573;-71
2024/02/12 09:05:49;;;;;;;26.83;16.10;;;;;;;-8.22;99.69;101450.53;5045259;28;20124;-71
2024/02/12 09:08:15;;;;;;;26.50;15.20;;;;;;;-9.16;99.52;101286.06;5050950;28;20098;-70
2024/02/12 09:10:42;;;;;;;24.00;14.50;;;;;;;-9.06;99.07;101299.66;5047733;28;20068;-70
2024/02/12 09:13:07;;;;;;;30.90;16.40;;;;;;;-8.40;98.44;101419.84;5051522;28;20053;-69
2024/02/12 09:15:34;;;;;;;29.73;16.27;;;;;;;-8.13;97.71;101450.34;5051047;28;20041;-70
2024/02/12 09:17:59;;;;;;;23.67;14.10;;;;;;;-8.29;97.20;101434.28;5028552;28;20033;-72
2024/02/12 09:20:29;;;;;;;22.63;13.57;;;;;;;-8.09;96.55;101452.03;5046770;28;20064;-71
2024/02/12 09:22:55;;;;;;;23.95;12.82;;;;;;;-8.26;95.79;101460.06;5047189;28;20052;-72
2024/02/12 09:25:27;;;;;;;20.25;13.57;;;;;;;-8.40;96.22;101450.84;5045943;28;20057;-70
2024/02/12 09:27:53;;;;;;;25.77;15.07;;;;;;;-8.26;96.18;101469.53;5043377;28;20504;-68
2024/02/12 09:30:18;;;;;;;27.77;15.93;;;;;;;-8.27;96.07;101449.75;5034490;28;20049;-69
2024/02/12 09:32:44;;;;;;;26.30;15.47;;;;;;;-8.25;95.82;101445.41;5042471;28;20040;-73
2024/02/12 09:35:11;;;;;;;34.50;18.93;;;;;;;-8.17;95.33;101470.22;5035705;28;20041;-72
2024/02/12 09:37:39;;;;;;;21.77;14.07;;;;;;;-8.18;94.11;101458.19;5047062;28;20136;-68
2024/02/12 09:40:07;;;;;;;24.02;15.35;;;;;;;-8.48;93.55;101423.44;5047425;28;20047;-69
2024/02/12 09:42:48;;;;;;;21.08;14.00;;;;;;;-8.41;93.46;101464.66;5041818;28;20051;-68
2024/02/12 09:45:18;;;;;;;21.13;14.02;;;;;;;-8.71;94.10;101422.97;5049314;28;20037;-71
2024/02/12 09:47:44;;;;;;;25.80;14.27;;;;;;;-8.43;94.28;101455.19;5049166;28;20033;-68
2024/02/12 09:50:12;;;;;;;23.33;15.65;;;;;;;-8.35;92.69;101469.75;5045844;28;20041;-67
2024/02/12 09:52:40;;;;;;;17.10;11.70;;;;;;;-8.45;92.61;101469.88;5046297;28;20727;-70
2024/02/12 09:55:06;;;;;;;21.90;14.02;;;;;;;-8.42;93.66;101453.47;5040827;28;20691;-71
2024/02/12 09:57:33;;;;;;;18.35;11.32;;;;;;;-8.42;92.72;101463.81;5032434;28;20056;-69
2024/02/12 09:59:59;;;;;;;19.37;11.03;;;;;;;-8.41;93.36;101460.34;5040013;28;20563;-70
2024/02/12 10:02:24;;;;;;;28.23;13.67;;;;;;;-8.52;92.71;101432.13;5033969;28;20041;-72
2024/02/12 10:05:15;;;;;;;20.52;11.43;;;;;;;-8.41;92.35;101469.81;5034081;28;20056;-70
2024/02/12 10:08:01;;;;;;;22.35;12.35;;;;;;;-8.26;92.86;101466.97;5040246;28;20055;-70
2024/02/12 10:10:47;;;;;;;23.45;12.27;;;;;;;-8.35;91.50;101460.25;5042252;28;20412;-71
2024/02/12 10:13:33;;;;;;;21.85;13.30;;;;;;;-8.44;91.81;101461.25;5042020;28;20052;-70
2024/02/12 10:16:22;;;;;;;23.80;12.27;;;;;;;-8.32;92.88;101480.00;5035699;28;20041;-70
2024/02/12 10:19:07;;;;;;;28.02;12.93;;;;;;;-8.29;92.14;101459.25;5035137;28;20507;-71
2024/02/12 10:21:54;;;;;;;18.30;12.93;;;;;;;-8.32;91.53;101485.16;5040896;28;20076;-70
2024/02/12 10:24:41;;;;;;;27.58;13.23;;;;;;;-8.56;91.40;101456.28;5040016;28;20493;-71
2024/02/12 10:27:28;;;;;;;22.73;14.32;;;;;;;-8.40;91.96;101472.38;5036635;28;20139;-69
2024/02/12 10:30:16;;;;;;;23.25;12.18;;;;;;;-8.34;91.23;101485.22;5034668;28;20045;-69
2024/02/12 10:33:07;;;;;;;23.13;14.18;;;;;;;-8.34;92.70;101467.13;5045198;28;20497;-70
2024/02/12 10:35:53;;;;;;;18.30;11.60;;;;;;;-8.20;92.32;101469.44;5045643;28;20044;-72
2024/02/12 10:38:41;;;;;;;22.98;13.85;;;;;;;-8.31;90.68;101435.19;5039878;28;20032;-68
2024/02/12 10:41:33;;;;;;;19.83;12.85;;;;;;;-8.27;91.07;101457.50;5030530;28;20037;-68
2024/02/12 10:44:19;;;;;;;23.50;13.57;;;;;;;-8.39;90.63;101457.72;5043229;28;20451;-69
2024/02/12 10:47:09;;;;;;;21.92;13.25;;;;;;;-8.21;91.08;101483.22;5025740;28;20036;-68
2024/02/12 10:49:59;;;;;;;36.97;14.73;;;;;;;-8.27;91.40;101473.00;5044663;28;20091;-69
2024/02/12 10:52:46;;;;;;;25.40;13.80;;;;;;;-8.17;90.82;101474.53;5046102;28;20135;-69
2024/02/12 10:55:33;;;;;;;19.50;13.15;;;;;;;-8.25;91.28;101472.09;5036558;28;20044;-70
2024/02/12 10:58:00;;;;;;;27.10;13.52;;;;;;;-8.23;91.91;101465.16;5040110;28;20041;-70
2024/02/12 11:00:25;;;;;;;24.73;13.57;;;;;;;-8.15;92.14;101485.69;5040035;28;20041;-74
2024/02/12 11:03:09;;;;;;;22.08;13.52;;;;;;;-8.65;92.30;101430.63;5039392;28;20303;-69
2024/02/12 11:05:42;;;;;;;27.77;18.52;;;;;;;-8.41;93.77;101478.41;5039253;28;20050;-70
2024/02/12 11:08:15;;;;;;;20.90;14.13;;;;;;;-8.63;95.16;101434.03;5040594;28;20040;-71
2024/02/12 11:10:43;;;;;;;25.60;14.80;;;;;;;-8.53;94.86;101451.06;5045866;28;20057;-71
2024/02/12 11:13:15;;;;;;;22.65;14.13;;;;;;;-8.90;95.10;101409.50;5049561;28;20390;-66
2024/02/12 11:15:50;;;;;;;20.67;14.13;;;;;;;-8.71;95.79;101424.69;5041491;28;20048;-72
2024/02/12 11:18:16;;;;;;;26.13;14.00;;;;;;;-8.44;96.22;101461.25;5040928;28;20041;-71
2024/02/12 11:20:54;;;;;;;25.40;15.63;;;;;;;-8.59;96.94;101435.69;5043570;28;20105;-71
2024/02/12 11:23:25;;;;;;;26.55;13.93;;;;;;;-8.47;97.23;101450.97;5038210;28;20404;-69
2024/02/12 11:26:02;;;;;;;21.95;13.00;;;;;;;-8.38;97.45;101443.94;5055742;28;20049;-69
2024/02/12 11:28:30;;;;;;;22.95;14.70;;;;;;;-8.43;97.84;101459.50;5066163;28;20029;-70
2024/02/12 11:30:57;;;;;;;26.00;13.55;;;;;;;-8.49;98.98;101451.88;5052582;28;20508;-69